Lincoln, Nebraska
Current Conditions -  °F | °C
As of 10:35 AM on Monday 24 Nov 2014 (Local Time) from KLNK Reporting Station
Overcast Overcast  
Wind Chill: -8°   Ceiling: 2800
Heat Index:   Visibility: 10mi
Dew Point: -8°   Wind: 26mph
Humidity: 56%   Direction: 330°NNW
Pressure: 29.77"   Gusts: 35mph
Location:  40.81°N, 96.71°W
Report Text: KLNK 241635Z 33023G30KT 10SM OVC028 00/M08 A2977 RMK AO2 PK WND 32036/1603 T00001078
Loading
Personal Weather Stations






























Interactive Weather Map New forecast layout! Learn more

10-Day Weather Forecast

Advertisements
Track Severe Weather on mobile